Fearisville, Kentucky
Current Conditions -  °F | °C
As of 6:15 PM on Tuesday 25 Nov 2014 (Local Time) from KFGX Reporting Station
Clear Clear  
Wind Chill: 41°   Ceiling: Unl
Heat Index: 41°   Visibility: 10mi
Dew Point: 26°   Wind: 0mph
Humidity: 56%   Direction: NA
Pressure: 30.13"   Gusts: NA
Location:  38.4929°N, 83.3898°W
Report Text: KFGX 252315Z AUTO 00000KT 10SM CLR 05/M03 A3013 RMK AO2 T00511031
Loading
Personal Weather Stations






























Interactive Weather Map New forecast layout! Learn more

10-Day Weather Forecast

Advertisements
Track Severe Weather on mobile